Time;durP1;ratioP1;P1;durP2;ratioP2;P2;SDS_P1;SDS_P2;PMS_P1;PMS_P2;Temp;Humidity;BMP_temperature;BMP_pressure;BME280_temperature;BME280_humidity;BME280_pressure;Samples;Min_cycle;Max_cycle;Signal;HPM_P1;HPM_P2
2023/03/11 00:00:26;;;;;;;;;27.80;27.60;;;;;8.34;57.17;100731.50;2045590;27;3606468;-78
2023/03/11 00:01:39;;;;;;;;;29.00;26.00;;;;;8.32;56.67;100734.13;2001630;28;2850233;-78
2023/03/11 00:02:52;;;;;;;;;30.00;26.50;;;;;8.31;57.16;100742.91;1999696;28;2859596;-78
2023/03/11 00:04:05;;;;;;;;;24.00;19.80;;;;;8.31;57.25;100742.91;2007966;28;2834669;-79
2023/03/11 00:05:26;;;;;;;;;30.33;25.00;;;;;8.29;56.50;100739.47;1998685;28;3602829;-78
2023/03/11 00:06:37;;;;;;;;;33.00;25.50;;;;;8.28;56.27;100761.31;2007843;27;2867997;-78
2023/03/11 00:07:50;;;;;;;;;26.20;24.00;;;;;8.26;55.38;100765.72;2025588;27;3589786;-78
2023/03/11 00:09:00;;;;;;;;;27.50;27.00;;;;;8.24;55.42;100762.28;2019136;28;2857505;-78
2023/03/11 00:10:24;;;;;;;;;22.60;20.00;;;;;8.22;56.34;100769.31;2021869;28;3570012;-77
2023/03/11 00:11:35;;;;;;;;;21.00;19.00;;;;;8.19;55.14;100757.16;2021621;28;3574207;-78
2023/03/11 00:12:48;;;;;;;;;21.83;20.00;;;;;8.16;55.50;100770.31;2056125;27;2833551;-78
2023/03/11 00:13:59;;;;;;;;;17.50;16.75;;;;;8.15;55.70;100772.97;2028506;28;1841960;-79
2023/03/11 00:15:11;;;;;;;;;19.50;17.50;;;;;8.14;55.93;100782.56;2002013;28;2829420;-79
2023/03/11 00:16:24;;;;;;;;;21.60;19.60;;;;;8.14;55.59;100779.94;2043121;28;2833555;-78
2023/03/11 00:17:35;;;;;;;;;13.00;11.50;;;;;8.15;55.90;100783.44;2017365;28;2784654;-78
2023/03/11 00:18:50;;;;;;;;;22.67;18.67;;;;;8.16;56.28;100790.38;2046651;27;3575604;-78
2023/03/11 00:20:03;;;;;;;;;22.67;19.33;;;;;8.16;55.88;100782.53;2028790;27;3578385;-78
2023/03/11 00:21:16;;;;;;;;;22.67;18.67;;;;;8.17;56.41;100786.88;2023437;28;3567943;-78
2023/03/11 00:22:27;;;;;;;;;25.00;22.33;;;;;8.17;56.24;100784.25;2022847;28;3590888;-78
2023/03/11 00:23:39;;;;;;;;;16.50;14.00;;;;;8.18;55.79;100784.22;2041228;27;2823179;-78
2023/03/11 00:24:51;;;;;;;;;23.60;20.00;;;;;8.18;55.70;100784.22;2021003;27;3586698;-78
2023/03/11 00:26:03;;;;;;;;;20.67;18.00;;;;;8.17;55.71;100777.25;2039610;28;3557517;-78
2023/03/11 00:27:14;;;;;;;;;27.00;21.40;;;;;8.18;55.63;100775.50;2039329;28;3584565;-78
2023/03/11 00:28:26;;;;;;;;;22.00;21.33;;;;;8.18;56.22;100757.16;2041464;28;3589838;-78
2023/03/11 00:29:38;;;;;;;;;24.00;19.00;;;;;8.19;55.85;100754.53;2036948;28;3569014;-78
2023/03/11 00:30:50;;;;;;;;;22.33;20.33;;;;;8.21;56.09;100757.09;2039218;28;3582532;-78
2023/03/11 00:32:01;;;;;;;;;17.50;14.00;;;;;8.20;55.98;100750.13;2032650;28;2824263;-78
2023/03/11 00:33:14;;;;;;;;;18.00;15.50;;;;;8.20;56.05;100751.00;2026389;27;1833610;-78
2023/03/11 00:34:28;;;;;;;;;16.43;14.57;;;;;8.20;56.35;100745.75;2028375;28;1837788;-78
2023/03/11 00:35:39;;;;;;;;;18.00;14.00;;;;;8.21;55.96;100751.88;2022872;28;2806516;-78
2023/03/11 00:36:50;;;;;;;;;14.00;13.50;;;;;8.20;56.14;100761.47;2035091;28;2792984;-78
2023/03/11 00:38:04;;;;;;;;;17.00;13.00;;;;;8.21;56.13;100767.56;2016750;27;2817397;-78
2023/03/11 00:39:17;;;;;;;;;12.83;12.83;;;;;8.22;55.97;100766.69;2026742;28;1816912;-78
2023/03/11 00:40:31;;;;;;;;;18.00;15.00;;;;;8.22;56.16;100766.69;1999827;28;2825334;-78
2023/03/11 00:41:41;;;;;;;;;13.50;13.50;;;;;8.21;56.31;100763.22;2018689;28;2792971;-78
2023/03/11 00:42:53;;;;;;;;;17.00;14.00;;;;;8.22;55.53;100764.91;2026183;27;1827334;-78
2023/03/11 00:44:07;;;;;;;;;17.14;13.71;;;;;8.22;55.49;100748.38;2030444;27;1820057;-78
2023/03/11 00:45:21;;;;;;;;;14.00;12.50;;;;;8.21;55.65;100744.88;2047037;28;1824277;-78
2023/03/11 00:46:31;;;;;;;;;19.00;13.50;;;;;8.22;55.70;100750.97;2001631;27;2816943;-78
2023/03/11 00:47:42;;;;;;;;;13.25;12.75;;;;;8.21;55.76;100757.97;2052961;27;1826468;-79
2023/03/11 00:48:53;;;;;;;;;19.00;14.50;;;;;8.22;55.21;100753.59;2001577;27;2816945;-78
2023/03/11 00:50:05;;;;;;;;;13.00;11.50;;;;;8.22;56.21;100743.97;2012786;27;2809634;-78
2023/03/11 00:51:17;;;;;;;;;15.00;13.00;;;;;8.22;56.06;100738.72;2001372;28;2798159;-78
2023/03/11 00:52:28;;;;;;;;;15.00;12.00;;;;;8.22;55.76;100738.72;2035360;27;1847231;-78
2023/03/11 00:53:39;;;;;;;;;16.50;14.50;;;;;8.22;55.68;100733.50;2023371;28;2805485;-78
2023/03/11 00:54:50;;;;;;;;;13.00;10.50;;;;;8.23;55.42;100731.75;2026100;28;2797162;-78
2023/03/11 00:56:06;;;;;;;;;12.00;11.00;;;;;8.22;54.91;100733.50;2052073;27;1839878;-78
2023/03/11 00:57:17;;;;;;;;;10.00;10.00;;;;;8.21;55.17;100736.16;2001297;27;2789861;-78
2023/03/11 00:58:29;;;;;;;;;9.67;9.33;;;;;8.21;55.41;100738.78;2042790;27;3482538;-78
2023/03/11 00:59:42;;;;;;;;;9.83;8.33;;;;;8.19;55.27;100730.97;2051207;28;2746110;-78
2023/03/11 01:00:56;;;;;;;;;3.83;2.17;;;;;8.19;55.03;100735.34;2020754;28;2746094;-78
2023/03/11 01:02:09;;;;;;;;;8.67;8.67;;;;;8.18;55.23;100731.84;2051262;28;2747159;-78
2023/03/11 01:03:19;;;;;;;;;10.00;10.00;;;;;8.19;55.21;100737.94;2023572;27;3519004;-78
2023/03/11 01:04:30;;;;;;;;;9.33;8.00;;;;;8.19;55.53;100737.94;2038449;28;2733701;-78
2023/03/11 01:05:41;;;;;;;;;6.33;5.67;;;;;8.20;56.11;100755.38;2050411;28;2730481;-78
2023/03/11 01:06:52;;;;;;;;;10.33;9.00;;;;;8.21;55.65;100757.09;2001258;28;3493985;-78
2023/03/11 01:08:03;;;;;;;;;8.00;8.00;;;;;8.21;55.70;100755.34;2050641;28;2746087;-78
2023/03/11 01:09:17;;;;;;;;;9.17;8.00;;;;;8.22;56.37;100754.44;2030265;28;2756510;-78
2023/03/11 01:10:29;;;;;;;;;6.00;6.00;;;;;8.23;55.62;100768.41;2024604;27;2745030;-78
2023/03/11 01:11:42;;;;;;;;;5.50;5.50;;;;;8.24;56.47;100769.25;2051522;28;2730470;-78
2023/03/11 01:12:55;;;;;;;;;5.67;4.83;;;;;8.25;55.72;100777.06;2044881;27;2746136;-78
2023/03/11 01:14:09;;;;;;;;;8.00;7.00;;;;;8.25;55.56;100778.84;2047972;28;2732569;-78
2023/03/11 01:15:31;;;;;;;;;7.50;6.50;;;;;8.24;55.11;100775.38;2052726;27;2736740;-78
2023/03/11 01:16:45;;;;;;;;;5.00;3.67;;;;;8.22;54.62;100764.91;2059640;27;2741920;-78
2023/03/11 01:17:58;;;;;;;;;5.17;5.17;;;;;8.21;54.24;100764.97;2058900;27;2746113;-78
2023/03/11 01:19:12;;;;;;;;;6.00;4.83;;;;;8.19;54.39;100758.91;2051964;28;2746466;-78
2023/03/11 01:20:25;;;;;;;;;7.00;5.00;;;;;8.17;53.97;100761.53;2050076;28;2750318;-78
2023/03/11 01:21:39;;;;;;;;;8.83;6.50;;;;;8.14;54.33;100758.13;2029440;28;2737816;-78
2023/03/11 01:22:53;;;;;;;;;3.67;2.17;;;;;8.13;54.80;100753.78;2053547;27;2733598;-78
2023/03/11 01:24:06;;;;;;;;;5.33;5.33;;;;;8.13;54.76;100753.78;2052396;28;2736724;-78
2023/03/11 01:25:21;;;;;;;;;5.67;5.67;;;;;8.13;55.19;100754.66;2051909;27;2731527;-78
2023/03/11 01:26:34;;;;;;;;;5.00;5.00;;;;;8.13;55.04;100745.94;2052450;27;2741958;-78
2023/03/11 01:27:48;;;;;;;;;7.33;5.83;;;;;8.13;55.07;100751.16;2051549;28;2735678;-78
2023/03/11 01:29:02;;;;;;;;;8.17;7.00;;;;;8.13;55.82;100749.41;2051618;28;2739891;-78
2023/03/11 01:30:19;;;;;;;;;7.50;6.17;;;;;8.15;55.23;100749.41;2052886;27;2742966;-78
2023/03/11 01:31:29;;;;;;;;;10.00;8.00;;;;;8.15;55.47;100752.84;2024412;27;2756605;-78
2023/03/11 01:32:40;;;;;;;;;7.33;6.33;;;;;8.15;55.26;100759.88;2051005;27;2730470;-78
2023/03/11 01:33:53;;;;;;;;;9.50;5.67;;;;;8.16;55.87;100762.44;2029186;27;2739844;-78
2023/03/11 01:35:08;;;;;;;;;7.33;7.33;;;;;8.16;55.41;100749.34;2028184;27;2741943;-78
2023/03/11 01:36:21;;;;;;;;;7.17;6.50;;;;;8.16;55.84;100733.66;2052567;27;2731556;-78
2023/03/11 01:37:35;;;;;;;;;7.83;7.33;;;;;8.18;55.80;100739.69;2052346;27;2726308;-78
2023/03/11 01:38:48;;;;;;;;;9.50;8.00;;;;;8.17;55.35;100737.97;2043218;28;2751300;-78
2023/03/11 01:40:01;;;;;;;;;7.67;7.33;;;;;8.18;56.00;100751.94;2051390;28;2737784;-78
2023/03/11 01:41:14;;;;;;;;;8.00;6.83;;;;;8.18;55.76;100757.16;2027380;28;2740878;-78
2023/03/11 01:42:27;;;;;;;;;8.00;7.33;;;;;8.17;55.38;100760.69;2051464;28;2744030;-78
2023/03/11 01:43:44;;;;;;;;;7.33;7.33;;;;;8.19;55.75;100764.13;2024125;27;3450300;-78
2023/03/11 01:44:57;;;;;;;;;9.17;8.50;;;;;8.19;55.47;100769.38;2049439;28;2733631;-78
2023/03/11 01:46:13;;;;;;;;;11.00;9.00;;;;;8.20;55.37;100768.47;2001591;28;2769100;-78
2023/03/11 01:47:36;;;;;;;;;10.00;7.00;;;;;8.20;55.75;100766.72;2025838;28;2762787;-78
2023/03/11 01:48:50;;;;;;;;;8.83;7.67;;;;;8.21;55.91;100759.72;2052128;27;2747155;-78
2023/03/11 01:50:07;;;;;;;;;11.25;9.00;;;;;8.21;55.59;100755.34;2039840;27;1844076;-78
2023/03/11 01:51:40;;;;;;;;;10.00;9.00;;;;;8.22;55.94;100759.69;2024347;28;3475259;-78
2023/03/11 01:52:52;;;;;;;;;9.33;9.00;;;;;8.22;56.34;100764.06;2025183;28;2744016;-78
2023/03/11 01:54:09;;;;;;;;;9.67;9.67;;;;;8.22;56.43;100757.06;2024576;28;2771176;-78
2023/03/11 01:55:22;;;;;;;;;8.17;6.33;;;;;8.23;56.00;100752.69;2050600;27;2760710;-78
2023/03/11 01:56:34;;;;;;;;;11.67;8.67;;;;;8.25;56.06;100747.44;2025128;27;2763873;-78
2023/03/11 01:57:48;;;;;;;;;10.83;8.67;;;;;8.24;56.51;100738.72;2051612;27;2755462;-78
2023/03/11 01:58:59;;;;;;;;;10.33;9.00;;;;;8.26;56.06;100747.38;2000192;27;3487759;-78
2023/03/11 02:00:16;;;;;;;;;8.00;8.00;;;;;8.26;55.79;100747.38;2052070;28;2748189;-78
2023/03/11 02:01:29;;;;;;;;;8.00;8.00;;;;;8.25;55.69;100758.75;2028866;27;2739857;-78
2023/03/11 02:02:49;;;;;;;;;8.00;8.00;;;;;8.26;55.01;100754.38;2025118;27;2746145;-78
2023/03/11 02:04:03;;;;;;;;;7.83;7.33;;;;;8.23;55.66;100771.03;2051434;28;2739848;-78
2023/03/11 02:05:19;;;;;;;;;7.00;6.83;;;;;8.22;55.74;100770.16;2052316;27;2736728;-78
2023/03/11 02:06:33;;;;;;;;;8.67;8.00;;;;;8.23;55.42;100765.78;2051437;27;2751354;-78
2023/03/11 02:07:48;;;;;;;;;9.33;8.17;;;;;8.22;56.02;100759.69;2050787;28;2751313;-78
2023/03/11 02:09:02;;;;;;;;;3.00;3.00;;;;;8.22;55.08;100761.47;2021202;28;2731564;-78
2023/03/11 02:10:16;;;;;;;;;6.00;5.67;;;;;8.21;55.54;100770.19;2051712;28;2741931;-78
2023/03/11 02:11:30;;;;;;;;;8.00;5.00;;;;;8.19;56.04;100772.88;2054970;28;2730485;-78
2023/03/11 02:12:45;;;;;;;;;5.50;5.50;;;;;8.20;55.82;100776.31;2046001;28;2743053;-78
2023/03/11 02:14:02;;;;;;;;;6.33;5.67;;;;;8.19;55.09;100774.63;2051908;28;2739836;-78
2023/03/11 02:15:16;;;;;;;;;5.67;5.67;;;;;8.18;55.32;100778.09;2053952;28;2723195;-78
2023/03/11 02:16:30;;;;;;;;;6.00;5.17;;;;;8.16;55.52;100778.16;2052861;28;2750260;-78
2023/03/11 02:17:43;;;;;;;;;7.00;6.00;;;;;8.16;55.49;100785.16;2052181;28;2742452;-78
2023/03/11 02:19:11;;;;;;;;;8.17;6.67;;;;;8.17;55.35;100773.78;2049281;28;2732580;-78
2023/03/11 02:20:51;;;;;;;;;7.00;5.33;;;;;8.16;55.83;100777.28;2046986;28;2742974;-78
2023/03/11 02:22:04;;;;;;;;;6.00;5.83;;;;;8.15;56.11;100780.81;2046232;28;2733591;-78
2023/03/11 02:23:23;;;;;;;;;7.17;5.00;;;;;8.16;56.00;100785.16;2053555;28;2741982;-78
2023/03/11 02:24:48;;;;;;;;;5.67;4.67;;;;;8.15;55.22;100788.69;2053637;27;2746110;-78
2023/03/11 02:26:24;;;;;;;;;6.33;4.33;;;;;8.15;56.36;100783.44;2051881;27;2752340;-78
2023/03/11 02:27:42;;;;;;;;;6.17;4.83;;;;;8.16;55.75;100779.91;2052640;28;2748201;-78
2023/03/11 02:28:56;;;;;;;;;4.00;4.00;;;;;8.15;56.35;100779.03;2053422;28;2744007;-78
2023/03/11 02:30:11;;;;;;;;;7.17;5.00;;;;;8.16;56.50;100770.31;2054421;27;2731595;-78
2023/03/11 02:31:25;;;;;;;;;8.17;7.00;;;;;8.17;56.53;100781.66;2061287;27;2744016;-78
2023/03/11 02:32:39;;;;;;;;;5.50;5.50;;;;;8.17;56.87;100774.63;2056448;27;2734067;-78
2023/03/11 02:33:56;;;;;;;;;8.50;5.00;;;;;8.18;56.64;100778.09;2053376;27;2746118;-78
2023/03/11 02:35:10;;;;;;;;;6.33;5.33;;;;;8.17;56.28;100779.03;2030289;27;2742981;-78
2023/03/11 02:36:36;;;;;;;;;5.17;4.00;;;;;8.16;56.08;100777.28;2053632;27;2746133;-78
2023/03/11 02:37:51;;;;;;;;;7.50;5.67;;;;;8.15;55.97;100779.03;2049364;27;2745410;-78
2023/03/11 02:39:06;;;;;;;;;6.50;6.00;;;;;8.15;55.84;100775.59;2046853;28;2741959;-78
2023/03/11 02:40:22;;;;;;;;;6.50;4.50;;;;;8.13;56.46;100770.38;2052971;27;2746090;-78
2023/03/11 02:41:39;;;;;;;;;4.67;4.17;;;;;8.13;56.26;100769.50;2044672;28;2744011;-78
2023/03/11 02:42:56;;;;;;;;;6.00;4.67;;;;;8.14;56.06;100768.63;2050993;28;2748197;-78
2023/03/11 02:44:14;;;;;;;;;5.33;5.33;;;;;8.14;56.56;100763.38;2029990;28;2742977;-78
2023/03/11 02:45:29;;;;;;;;;5.67;4.67;;;;;8.13;56.58;100759.88;2027419;28;2746101;-78
2023/03/11 02:46:44;;;;;;;;;4.67;4.67;;;;;8.12;56.85;100752.94;2047631;28;2745065;-78
2023/03/11 02:47:59;;;;;;;;;5.33;5.33;;;;;8.13;56.24;100754.66;2021847;28;2746105;-78
2023/03/11 02:49:14;;;;;;;;;4.67;4.00;;;;;8.13;56.58;100751.16;2053303;27;2752364;-78
2023/03/11 02:50:29;;;;;;;;;6.17;5.67;;;;;8.11;56.36;100738.13;2029989;28;2746102;-78
2023/03/11 02:51:42;;;;;;;;;6.00;5.00;;;;;8.09;55.87;100730.31;2053538;28;2740902;-78
2023/03/11 02:52:55;;;;;;;;;4.50;4.50;;;;;8.06;56.07;100738.22;2052917;27;2737800;-78
2023/03/11 02:54:08;;;;;;;;;4.67;4.67;;;;;8.02;56.25;100739.19;2052703;27;2744085;-78
2023/03/11 02:55:22;;;;;;;;;5.00;4.83;;;;;7.99;56.10;100724.44;2052260;27;2746122;-78
2023/03/11 02:56:35;;;;;;;;;5.00;4.67;;;;;7.96;56.41;100727.09;2053428;28;2732565;-78
2023/03/11 02:57:48;;;;;;;;;4.83;4.33;;;;;7.96;56.52;100736.69;2051035;28;2748174;-78
2023/03/11 02:59:01;;;;;;;;;5.17;4.33;;;;;7.93;55.63;100740.25;2045534;28;2750329;-78
2023/03/11 03:00:16;;;;;;;;;6.67;5.00;;;;;7.90;55.76;100749.94;2053784;27;2748209;-78
2023/03/11 03:01:30;;;;;;;;;4.67;4.67;;;;;7.88;56.43;100747.34;2053915;27;2746086;-78
2023/03/11 03:02:44;;;;;;;;;2.33;2.33;;;;;7.87;56.15;100749.13;2053789;27;2730517;-78
2023/03/11 03:03:57;;;;;;;;;6.83;5.50;;;;;7.86;56.69;100749.13;2052798;28;2746111;-78
2023/03/11 03:05:11;;;;;;;;;8.33;5.67;;;;;7.86;55.75;100757.84;2053381;28;2740914;-78
2023/03/11 03:06:27;;;;;;;;;4.67;4.67;;;;;7.84;56.14;100759.63;2053094;27;2750264;-78
2023/03/11 03:07:40;;;;;;;;;5.00;4.50;;;;;7.82;55.90;100763.19;2049747;28;2746598;-78
2023/03/11 03:08:54;;;;;;;;;8.83;5.83;;;;;7.80;56.11;100762.34;2044136;28;2742023;-78
2023/03/11 03:10:08;;;;;;;;;5.00;4.33;;;;;7.80;56.51;100771.06;2028436;28;2737785;-78
2023/03/11 03:11:21;;;;;;;;;6.67;5.83;;;;;7.79;56.54;100761.50;2046607;28;2737785;-78
2023/03/11 03:12:34;;;;;;;;;6.33;5.00;;;;;7.79;56.68;100761.50;2058983;27;2746134;-78
2023/03/11 03:13:47;;;;;;;;;5.17;5.17;;;;;7.78;56.82;100757.13;2053374;27;2742970;-78
2023/03/11 03:15:01;;;;;;;;;5.00;5.00;;;;;7.80;57.31;100758.00;2051445;28;2746117;-78
2023/03/11 03:16:14;;;;;;;;;4.00;4.00;;;;;7.81;57.53;100749.22;2052425;28;2746126;-78
2023/03/11 03:17:27;;;;;;;;;6.67;6.00;;;;;7.81;57.33;100746.63;2053870;27;2736727;-78
2023/03/11 03:18:40;;;;;;;;;6.83;5.00;;;;;7.82;57.19;100742.25;2052123;28;2746106;-78
2023/03/11 03:19:53;;;;;;;;;4.50;4.50;;;;;7.81;57.19;100751.84;2046679;28;2738847;-78
2023/03/11 03:21:04;;;;;;;;;6.33;5.00;;;;;7.82;57.42;100753.59;2024657;28;3453759;-78
2023/03/11 03:22:16;;;;;;;;;5.75;5.00;;;;;7.82;57.55;100750.97;2050001;28;2748181;-78
2023/03/11 03:23:33;;;;;;;;;6.33;5.33;;;;;7.82;57.27;100750.97;2030325;27;2736719;-78
2023/03/11 03:24:47;;;;;;;;;6.83;5.33;;;;;7.81;57.26;100746.63;2053203;27;2731527;-78
2023/03/11 03:26:01;;;;;;;;;7.33;6.00;;;;;7.81;57.31;100749.22;2052741;27;2741950;-78
2023/03/11 03:27:14;;;;;;;;;5.00;5.00;;;;;7.81;57.34;100745.75;2053031;28;2754494;-78
2023/03/11 03:28:27;;;;;;;;;6.33;5.00;;;;;7.81;57.66;100753.59;2052134;27;2750261;-78
2023/03/11 03:29:40;;;;;;;;;7.83;6.00;;;;;7.81;57.07;100741.38;2052262;27;2744026;-78
2023/03/11 03:30:54;;;;;;;;;7.00;5.50;;;;;7.81;57.39;100730.03;2052066;27;2750304;-78
2023/03/11 03:32:07;;;;;;;;;7.67;5.50;;;;;7.81;57.17;100725.69;2053091;27;2748185;-78
2023/03/11 03:33:20;;;;;;;;;7.17;5.00;;;;;7.81;57.27;100728.28;2053344;27;2741928;-78
2023/03/11 03:34:34;;;;;;;;;5.50;5.33;;;;;7.82;57.58;100735.25;2052003;28;2748201;-78
2023/03/11 03:35:47;;;;;;;;;6.33;5.83;;;;;7.82;57.29;100719.56;2050351;28;2743449;-78
2023/03/11 03:37:00;;;;;;;;;7.33;6.33;;;;;7.82;57.58;100719.56;2044112;28;2741927;-78
2023/03/11 03:38:13;;;;;;;;;8.83;7.00;;;;;7.82;57.59;100713.47;2048724;28;2734668;-78
2023/03/11 03:39:26;;;;;;;;;5.00;5.00;;;;;7.82;57.66;100714.34;2050387;28;2747147;-78
2023/03/11 03:40:44;;;;;;;;;8.00;6.83;;;;;7.82;57.63;100722.19;2047986;28;2730458;-78
2023/03/11 03:41:58;;;;;;;;;8.17;7.17;;;;;7.83;57.60;100720.41;2052353;28;2740914;-78
2023/03/11 03:43:11;;;;;;;;;4.83;4.83;;;;;7.82;57.51;100724.78;2051715;28;2745053;-78
2023/03/11 03:44:24;;;;;;;;;6.83;6.50;;;;;7.81;57.23;100716.97;2028214;28;2737785;-78
2023/03/11 03:45:37;;;;;;;;;6.50;6.17;;;;;7.82;57.56;100719.56;2051476;28;2740894;-78
2023/03/11 03:46:50;;;;;;;;;5.83;5.83;;;;;7.81;57.38;100715.22;2047139;28;2751324;-78
2023/03/11 03:48:01;;;;;;;;;8.00;6.33;;;;;7.82;57.36;100718.69;2024983;27;3457545;-78
2023/03/11 03:49:12;;;;;;;;;9.33;6.00;;;;;7.80;57.40;100712.63;2051844;27;2746146;-78
2023/03/11 03:50:25;;;;;;;;;6.83;6.33;;;;;7.78;57.68;100725.75;2038412;27;2738245;-78
2023/03/11 03:51:35;;;;;;;;;8.00;7.67;;;;;7.76;57.37;100736.25;2033177;27;2737773;-78
2023/03/11 03:52:47;;;;;;;;;11.00;8.00;;;;;7.74;57.22;100731.94;2044120;27;2760812;-78
2023/03/11 03:53:58;;;;;;;;;7.00;7.00;;;;;7.73;57.27;100738.09;2051847;27;2736728;-78
2023/03/11 03:55:12;;;;;;;;;6.50;6.00;;;;;7.68;56.99;100732.91;2029799;27;2746114;-78
2023/03/11 03:56:25;;;;;;;;;10.50;6.17;;;;;7.68;57.60;100732.91;2051833;27;2751336;-78
2023/03/11 03:57:38;;;;;;;;;6.67;5.50;;;;;7.70;57.66;100735.53;2028854;28;2742962;-78
2023/03/11 03:58:53;;;;;;;;;8.17;7.00;;;;;7.70;57.84;100746.00;2052678;28;2741963;-78
2023/03/11 04:00:09;;;;;;;;;5.00;5.00;;;;;7.70;57.91;100740.75;2053064;27;2742961;-78
2023/03/11 04:01:23;;;;;;;;;7.67;7.67;;;;;7.70;57.99;100752.09;2053938;27;2725285;-78
2023/03/11 04:02:33;;;;;;;;;10.00;7.00;;;;;7.71;57.51;100750.31;2026562;27;2764855;-78
2023/03/11 04:03:46;;;;;;;;;7.40;6.20;;;;;7.71;57.76;100763.38;2051678;28;2736720;-78
2023/03/11 04:04:59;;;;;;;;;7.67;7.67;;;;;7.73;57.91;100766.88;2051850;28;2734635;-78
2023/03/11 04:06:18;;;;;;;;;8.83;8.83;;;;;7.72;57.48;100760.75;2046887;27;2750391;-79
2023/03/11 04:07:29;;;;;;;;;10.67;8.00;;;;;7.72;57.62;100752.03;2026287;28;2760767;-78
2023/03/11 04:08:40;;;;;;;;;3.33;3.00;;;;;7.71;57.70;100759.03;2052145;27;2746129;-78
2023/03/11 04:09:50;;;;;;;;;11.00;9.00;;;;;7.73;58.00;100756.41;2001205;28;2770154;-78
2023/03/11 04:11:02;;;;;;;;;7.25;7.00;;;;;7.75;57.98;100757.22;2036069;28;2732641;-78
2023/03/11 04:12:18;;;;;;;;;7.67;6.83;;;;;7.76;57.96;100764.16;2022034;28;2746107;-78
2023/03/11 04:13:31;;;;;;;;;8.50;7.67;;;;;7.76;57.47;100772.00;2049622;28;2741931;-78
2023/03/11 04:14:43;;;;;;;;;7.33;7.00;;;;;7.77;57.92;100771.13;2025661;27;2746179;-78
2023/03/11 04:15:56;;;;;;;;;8.83;7.67;;;;;7.77;57.75;100763.28;2052345;27;2741978;-78
2023/03/11 04:17:13;;;;;;;;;9.00;7.00;;;;;7.78;57.63;100754.53;2046628;27;2732553;-78
2023/03/11 04:18:26;;;;;;;;;7.33;7.33;;;;;7.80;58.23;100755.38;2050476;28;2739860;-78
2023/03/11 04:19:39;;;;;;;;;8.17;7.50;;;;;7.79;58.00;100756.25;2048011;28;2737059;-78
2023/03/11 04:20:53;;;;;;;;;9.83;8.50;;;;;7.80;58.05;100757.13;2050780;27;2756561;-78
2023/03/11 04:22:06;;;;;;;;;8.83;7.67;;;;;7.80;57.89;100755.38;2028837;28;2735681;-78
2023/03/11 04:23:19;;;;;;;;;5.17;4.17;;;;;7.81;57.91;100754.47;2052800;28;2741924;-78
2023/03/11 04:24:30;;;;;;;;;10.00;8.33;;;;;7.81;57.95;100751.84;2024538;27;3478380;-78
2023/03/11 04:25:40;;;;;;;;;9.00;9.00;;;;;7.81;58.16;100758.81;2036892;28;2744080;-78
2023/03/11 04:26:51;;;;;;;;;8.00;8.00;;;;;7.80;57.88;100758.00;2035719;28;2741984;-78
2023/03/11 04:28:02;;;;;;;;;11.33;7.67;;;;;7.80;58.13;100755.38;2036865;28;2767059;-78
2023/03/11 04:29:14;;;;;;;;;7.25;6.75;;;;;7.80;57.60;100747.53;2051395;28;2737758;-78
2023/03/11 04:30:25;;;;;;;;;10.67;7.00;;;;;7.81;58.15;100746.63;2039875;28;1816926;-78
2023/03/11 04:31:37;;;;;;;;;9.00;7.00;;;;;7.82;58.04;100744.88;2026426;27;2736041;-78
2023/03/11 04:32:50;;;;;;;;;6.50;6.50;;;;;7.81;57.58;100749.22;2043622;28;2736723;-78
2023/03/11 04:34:00;;;;;;;;;9.67;8.00;;;;;7.81;57.92;100748.38;2022156;27;3473173;-78
2023/03/11 04:35:11;;;;;;;;;12.00;8.67;;;;;7.79;57.58;100745.78;2032707;28;3483586;-78
2023/03/11 04:36:23;;;;;;;;;9.00;8.50;;;;;7.78;58.23;100745.84;2049786;28;2741951;-78
2023/03/11 04:37:36;;;;;;;;;10.33;8.17;;;;;7.78;58.13;100753.69;2050843;28;2756546;-78
2023/03/11 04:38:47;;;;;;;;;11.25;9.50;;;;;7.76;57.96;100751.06;2034991;27;1836766;-78
2023/03/11 04:40:01;;;;;;;;;6.83;6.17;;;;;7.75;57.84;100762.47;2051757;27;2739868;-78
2023/03/11 04:41:11;;;;;;;;;13.67;9.67;;;;;7.72;57.69;100762.50;2022531;28;3500243;-78
2023/03/11 04:42:22;;;;;;;;;8.00;8.00;;;;;7.72;57.70;100770.38;2052141;27;2732573;-78
2023/03/11 04:43:35;;;;;;;;;7.67;7.67;;;;;7.69;57.55;100759.94;2036227;27;2744034;-78
2023/03/11 04:44:48;;;;;;;;;8.50;8.17;;;;;7.67;57.82;100765.22;2047032;28;2744027;-78
2023/03/11 04:45:59;;;;;;;;;10.00;8.00;;;;;7.66;57.81;100771.34;2037977;28;1815868;-78
2023/03/11 04:47:10;;;;;;;;;9.33;8.00;;;;;7.65;57.66;100770.47;2017786;27;2755500;-78
2023/03/11 04:48:21;;;;;;;;;10.00;8.33;;;;;7.64;58.02;100766.16;2051195;27;2764871;-78
2023/03/11 04:49:32;;;;;;;;;9.33;8.00;;;;;7.63;57.34;100777.50;2002509;28;3470039;-78
2023/03/11 04:50:42;;;;;;;;;9.00;8.33;;;;;7.62;58.12;100775.78;2038408;27;3459619;-78
2023/03/11 04:51:54;;;;;;;;;9.33;9.33;;;;;7.61;58.11;100784.50;2050641;27;2756587;-78
2023/03/11 04:53:07;;;;;;;;;9.17;9.17;;;;;7.61;58.36;100789.75;2028362;28;2748677;-78
2023/03/11 04:54:17;;;;;;;;;12.00;8.33;;;;;7.60;58.35;100792.41;2015877;28;1827818;-78
2023/03/11 04:55:29;;;;;;;;;11.00;9.00;;;;;7.59;58.05;100790.66;2016638;28;2766995;-78
2023/03/11 04:56:39;;;;;;;;;9.67;9.00;;;;;7.57;57.91;100787.22;2027369;28;2750305;-78
2023/03/11 04:57:50;;;;;;;;;7.00;7.00;;;;;7.56;58.33;100786.34;2032596;28;2731570;-78
2023/03/11 04:59:01;;;;;;;;;13.00;10.00;;;;;7.56;58.42;100777.63;2039921;28;3511712;-78
2023/03/11 05:00:14;;;;;;;;;8.00;8.00;;;;;7.55;58.17;100779.41;2051437;27;2746121;-78
2023/03/11 05:01:25;;;;;;;;;9.00;9.00;;;;;7.53;57.99;100779.44;2018255;27;1825259;-78
2023/03/11 05:02:37;;;;;;;;;13.67;9.00;;;;;7.54;58.06;100782.91;2016238;28;2762834;-78
2023/03/11 05:03:48;;;;;;;;;10.67;10.33;;;;;7.56;58.41;100788.09;2022920;28;3514824;-78
2023/03/11 05:05:00;;;;;;;;;7.75;7.00;;;;;7.54;58.55;100786.41;2051618;27;2743995;-78
2023/03/11 05:06:11;;;;;;;;;9.00;8.00;;;;;7.56;58.43;100790.72;2040200;28;1821072;-78
2023/03/11 05:07:23;;;;;;;;;9.50;9.50;;;;;7.54;58.63;100799.47;2033440;28;1840891;-78
2023/03/11 05:08:34;;;;;;;;;10.50;10.50;;;;;7.56;58.91;100790.72;2037273;27;1841978;-78
2023/03/11 05:09:44;;;;;;;;;9.00;9.00;;;;;7.56;58.32;100791.59;2024988;28;2748609;-78
2023/03/11 05:10:55;;;;;;;;;13.00;11.00;;;;;7.58;59.07;100783.72;2042261;28;2791938;-78
2023/03/11 05:12:09;;;;;;;;;11.33;11.33;;;;;7.58;59.15;100779.34;2053025;28;1842510;-78
2023/03/11 05:13:20;;;;;;;;;11.33;9.00;;;;;7.57;58.64;100772.41;2001310;27;3497519;-78
2023/03/11 05:14:32;;;;;;;;;14.25;11.00;;;;;7.56;59.09;100770.66;2040375;27;1836851;-78
2023/03/11 05:15:44;;;;;;;;;11.33;9.00;;;;;7.57;58.77;100777.63;2025176;27;2773314;-78
2023/03/11 05:16:54;;;;;;;;;9.67;9.67;;;;;7.57;58.90;100777.63;2023331;28;3495081;-78
2023/03/11 05:18:05;;;;;;;;;12.67;10.00;;;;;7.58;58.98;100789.78;2037842;28;3506511;-78
2023/03/11 05:19:33;;;;;;;;;11.00;10.00;;;;;7.59;59.37;100796.75;2043738;27;3510659;-78
2023/03/11 05:20:47;;;;;;;;;8.50;7.33;;;;;7.60;59.40;100795.03;2051745;27;2737800;-78
2023/03/11 05:21:57;;;;;;;;;11.33;8.00;;;;;7.60;58.70;100797.63;2026143;27;2761711;-78
2023/03/11 05:23:08;;;;;;;;;11.33;9.00;;;;;7.60;59.34;100803.72;2026209;28;3495050;-78
2023/03/11 05:24:19;;;;;;;;;11.33;10.00;;;;;7.60;58.97;100803.72;2028931;28;3514834;-78
2023/03/11 05:25:30;;;;;;;;;12.33;12.00;;;;;7.61;59.25;100805.44;2038160;28;3514825;-78
2023/03/11 05:26:41;;;;;;;;;13.33;10.33;;;;;7.62;59.31;100799.31;2032308;28;3505463;-78
2023/03/11 05:27:52;;;;;;;;;10.67;8.67;;;;;7.62;59.27;100801.94;2047762;28;1817975;-78
2023/03/11 05:29:02;;;;;;;;;12.00;12.00;;;;;7.63;59.49;100797.59;2001177;28;2784658;-78
2023/03/11 05:30:14;;;;;;;;;13.33;10.00;;;;;7.62;59.17;100795.84;2042261;27;3515901;-78
2023/03/11 05:31:25;;;;;;;;;13.25;11.25;;;;;7.60;59.05;100790.66;2039803;27;1844499;-78
2023/03/11 05:32:36;;;;;;;;;15.50;13.00;;;;;7.59;59.42;100788.03;2022758;27;2791958;-78
2023/03/11 05:33:47;;;;;;;;;15.00;8.50;;;;;7.57;59.01;100780.25;2038489;27;2773184;-78
2023/03/11 05:34:58;;;;;;;;;9.00;7.67;;;;;7.58;59.09;100791.56;2041959;28;2731476;-78